Time;durP1;ratioP1;P1;durP2;ratioP2;P2;SDS_P1;SDS_P2;PMS_P1;PMS_P2;Temp;Humidity;BMP_temperature;BMP_pressure;BME280_temperature;BME280_humidity;BME280_pressure;Samples;Min_cycle;Max_cycle;Signal;HPM_P1;HPM_P2
2023/12/22 00:00:20;;;;;;;25.20;4.22;;;5.60;99.90;;;3.88;71.43;97572.03;4941782;29;20047;-85
2023/12/22 00:02:56;;;;;;;23.20;3.30;;;5.70;99.90;;;3.95;70.96;97564.63;4943273;29;20089;-84
2023/12/22 00:05:25;;;;;;;21.35;2.92;;;;;;;3.76;71.46;97588.50;4959721;29;20030;-86
2023/12/22 00:07:52;;;;;;;22.85;4.25;;;;;;;3.67;70.87;97553.53;4963849;28;20371;-84
2023/12/22 00:10:27;;;;;;;25.30;5.18;;;5.50;99.90;;;3.70;70.64;97597.56;4950260;28;20039;-84
2023/12/22 00:13:13;;;;;;;36.70;4.43;;;5.40;99.90;;;3.63;71.96;97578.94;4952481;28;20402;-84
2023/12/22 00:16:09;;;;;;;13.43;3.15;;;5.30;99.90;;;3.42;72.01;97586.44;4931064;28;20461;-84
2023/12/22 00:18:47;;;;;;;27.30;3.42;;;5.20;99.90;;;3.42;71.92;97583.84;4889541;29;20036;-84
2023/12/22 00:21:13;;;;;;;30.15;3.88;;;;;;;3.49;71.84;97598.06;4888928;29;20045;-84
2023/12/22 00:23:48;;;;;;;27.60;2.72;;;;;;;3.35;71.86;97605.13;4904283;29;20036;-84
2023/12/22 00:26:15;;;;;;;19.70;3.60;;;5.10;99.90;;;3.34;71.88;97599.13;4891728;29;20028;-84
2023/12/22 00:28:48;;;;;;;14.85;3.92;;;5.10;99.90;;;3.28;71.68;97570.91;4904106;29;20514;-83
2023/12/22 00:31:16;;;;;;;26.67;3.92;;;5.10;99.90;;;3.23;72.41;97606.81;4901413;29;20575;-84
2023/12/22 00:33:55;;;;;;;;;;;;;;;;;;;;;
2023/12/22 00:36:25;;;;;;;10.23;2.78;;;5.10;99.90;;;3.29;71.92;97627.22;4889589;29;20055;-84
2023/12/22 00:39:00;;;;;;;14.95;3.05;;;;;;;3.31;71.54;97620.13;4887214;29;20065;-83
2023/12/22 00:41:25;;;;;;;16.23;2.83;;;5.00;99.90;;;3.29;71.83;97650.59;4891636;29;20060;-84
2023/12/22 00:44:12;;;;;;;;;;;;;;;;;;;;;
2023/12/22 00:46:44;;;;;;;19.38;2.80;;;5.00;99.90;;;3.18;71.46;97630.50;4902177;29;20035;-83
2023/12/22 00:49:13;;;;;;;15.77;2.25;;;;;;;3.18;71.81;97632.28;4892726;29;20036;-84
2023/12/22 00:51:46;;;;;;;29.48;4.07;;;4.90;99.90;;;3.11;71.61;97644.00;4887612;29;20040;-84
2023/12/22 00:54:15;;;;;;;31.33;4.15;;;;;;;3.16;71.39;97652.34;4887594;29;20044;-84
2023/12/22 00:56:52;;;;;;;11.10;2.58;;;;;;;3.15;71.41;97653.28;4941765;28;20051;-84
2023/12/22 00:59:18;;;;;;;10.68;2.78;;;4.90;99.90;;;3.13;71.65;97662.94;4946067;28;20031;-84
2023/12/22 01:01:44;;;;;;;15.10;2.20;;;4.90;99.90;;;3.07;71.03;97670.22;4967314;23;20417;-82
2023/12/22 01:04:12;;;;;;;18.08;2.75;;;4.90;99.90;;;3.12;71.01;97687.28;4940307;28;20050;-80
2023/12/22 01:06:40;;;;;;;26.15;2.83;;;4.90;99.90;;;3.16;70.54;97676.59;4940083;28;20102;-80
2023/12/22 01:09:07;;;;;;;19.30;3.35;;;4.90;99.90;;;3.22;70.66;97689.19;4941139;28;20043;-80
2023/12/22 01:11:33;;;;;;;27.08;4.25;;;4.90;99.90;;;3.18;70.80;97679.91;4953979;28;20023;-81
2023/12/22 01:13:58;;;;;;;22.15;2.95;;;4.90;99.90;;;3.23;70.64;97685.63;4957989;28;20069;-80
2023/12/22 01:16:24;;;;;;;12.48;2.83;;;5.00;99.90;;;3.21;71.34;97697.91;4937398;28;21051;-82
2023/12/22 01:18:55;;;;;;;19.83;2.78;;;5.00;99.90;;;3.18;71.65;97681.69;4937990;28;20035;-80
2023/12/22 01:21:21;;;;;;;23.33;3.83;;;4.90;99.90;;;3.22;71.52;97707.38;4954393;28;20344;-81
2023/12/22 01:23:46;;;;;;;15.88;3.33;;;5.00;99.90;;;3.28;71.42;97706.13;4951292;28;20041;-80
2023/12/22 01:26:12;;;;;;;21.23;3.28;;;5.00;99.90;;;3.17;71.75;97701.63;4954324;29;20102;-80
2023/12/22 01:28:38;;;;;;;18.08;3.20;;;4.90;99.90;;;3.14;72.00;97693.22;4976857;28;20033;-80
2023/12/22 01:31:04;;;;;;;6.88;1.80;;;4.90;99.90;;;3.02;71.48;97713.88;4955782;28;20505;-81
2023/12/22 01:33:38;;;;;;;11.45;2.78;;;4.80;99.90;;;2.99;71.58;97700.22;4938262;28;20217;-80
2023/12/22 01:36:04;;;;;;;10.40;1.95;;;4.70;99.90;;;2.90;70.86;97724.22;4935099;29;20054;-81
2023/12/22 01:38:30;;;;;;;21.50;3.35;;;4.60;99.90;;;2.76;71.11;97748.44;4956599;28;20287;-80
2023/12/22 01:40:56;;;;;;;17.98;2.28;;;4.60;99.90;;;2.71;70.58;97719.34;4954134;28;20106;-80
2023/12/22 01:43:29;;;;;;;9.05;2.58;;;4.50;99.90;;;2.62;71.11;97736.34;4955122;28;20399;-82
2023/12/22 01:45:58;;;;;;;10.60;2.03;;;4.50;99.90;;;2.57;71.19;97718.44;4953153;28;20023;-81
2023/12/22 01:48:25;;;;;;;13.50;2.72;;;4.40;99.90;;;2.58;70.82;97717.50;4933060;28;20510;-81
2023/12/22 01:50:56;;;;;;;12.70;2.90;;;4.40;99.90;;;2.59;70.88;97721.78;4956620;28;20033;-80
2023/12/22 01:53:24;;;;;;;16.35;2.97;;;4.40;99.90;;;2.47;72.10;97725.13;4957613;28;20105;-82
2023/12/22 01:55:51;;;;;;;10.93;2.50;;;4.40;99.90;;;2.55;72.47;97733.28;4945936;28;20474;-82
2023/12/22 01:58:19;;;;;;;11.43;2.58;;;4.30;99.90;;;2.51;72.78;97724.00;4950153;28;20390;-81
2023/12/22 02:00:49;;;;;;;24.42;3.55;;;4.30;99.90;;;2.55;72.19;97694.31;4949125;28;20035;-81
2023/12/22 02:03:16;;;;;;;12.43;3.00;;;4.40;99.90;;;2.66;71.95;97717.03;4936373;28;20106;-81
2023/12/22 02:05:43;;;;;;;28.35;3.60;;;4.40;99.90;;;2.64;71.94;97713.69;4941793;28;20482;-81
2023/12/22 02:08:18;;;;;;;14.48;2.50;;;4.40;99.90;;;2.64;72.05;97714.53;4953762;29;20370;-80
2023/12/22 02:10:44;;;;;;;7.90;2.50;;;4.40;99.90;;;2.60;71.99;97722.59;4936357;28;20090;-82
2023/12/22 02:13:11;;;;;;;13.27;2.72;;;4.40;99.90;;;2.62;71.94;97715.56;4950502;28;20034;-84
2023/12/22 02:15:40;;;;;;;17.25;2.90;;;4.50;99.90;;;2.70;71.08;97743.63;4949890;28;20027;-80
2023/12/22 02:18:14;;;;;;;26.13;4.00;;;4.40;99.90;;;2.74;70.89;97745.13;4956970;28;20062;-80
2023/12/22 02:20:40;;;;;;;34.97;3.55;;;4.40;99.90;;;2.65;70.92;97726.56;4957696;28;20031;-80
2023/12/22 02:23:13;;;;;;;8.10;2.58;;;4.50;99.90;;;2.66;70.72;97738.63;4945042;28;20023;-81
2023/12/22 02:25:39;;;;;;;31.80;4.10;;;4.50;99.90;;;2.77;71.08;97752.75;4947849;28;20038;-81
2023/12/22 02:28:20;;;;;;;20.05;2.97;;;4.50;99.90;;;2.76;70.98;97740.66;4942608;28;20023;-80
2023/12/22 02:31:03;;;;;;;17.02;2.47;;;4.50;99.90;;;2.75;71.24;97741.59;4948593;28;20439;-81
2023/12/22 02:33:33;;;;;;;24.10;4.00;;;4.50;99.90;;;2.69;71.06;97748.00;4969692;28;20027;-83
2023/12/22 02:36:06;;;;;;;18.92;3.05;;;4.50;99.90;;;2.73;71.19;97743.47;4953012;28;20031;-80
2023/12/22 02:38:34;;;;;;;14.43;1.98;;;4.50;99.90;;;2.63;72.03;97731.03;4950189;29;20497;-82
2023/12/22 02:41:04;;;;;;;18.88;2.70;;;4.50;99.90;;;2.67;71.15;97750.69;4937418;28;20054;-82
2023/12/22 02:43:30;;;;;;;19.10;3.17;;;4.50;99.90;;;2.69;71.18;97749.78;4948088;28;20110;-81
2023/12/22 02:45:55;;;;;;;24.33;3.72;;;4.40;99.90;;;2.66;71.06;97728.25;4939386;29;20035;-81
2023/12/22 02:48:21;;;;;;;19.85;3.08;;;4.40;99.90;;;2.67;71.01;97744.66;4954227;28;20139;-82
2023/12/22 02:50:47;;;;;;;12.63;2.67;;;4.40;99.90;;;2.66;71.55;97749.03;4955415;28;20111;-81
2023/12/22 02:53:13;;;;;;;17.92;3.33;;;4.50;99.90;;;2.63;71.71;97732.78;4948023;28;20027;-82
2023/12/22 02:55:46;;;;;;;13.85;2.28;;;4.40;99.90;;;2.66;71.11;97754.22;4949242;28;20114;-81
2023/12/22 02:58:12;;;;;;;17.15;2.38;;;4.40;99.90;;;2.61;70.11;97748.50;4947337;28;20027;-81
2023/12/22 03:00:38;;;;;;;15.48;2.10;;;4.40;99.90;;;2.61;70.39;97726.84;4939373;28;20524;-80
2023/12/22 03:03:04;;;;;;;11.00;1.63;;;4.40;99.90;;;2.59;69.99;97745.16;4951987;28;20138;-82
2023/12/22 03:05:29;;;;;;;10.90;2.15;;;4.40;99.90;;;2.56;70.26;97747.94;4940030;28;20031;-82
2023/12/22 03:08:00;;;;;;;11.38;2.13;;;4.40;99.90;;;2.63;70.27;97754.41;4941648;28;20463;-80
2023/12/22 03:10:26;;;;;;;16.75;1.85;;;4.40;99.90;;;2.60;70.49;97759.81;4957937;28;20073;-81
2023/12/22 03:12:52;;;;;;;14.38;1.77;;;4.40;99.90;;;2.63;70.88;97756.16;4934586;28;20031;-82
2023/12/22 03:15:18;;;;;;;16.23;1.98;;;4.40;99.90;;;2.64;70.09;97753.50;4955667;28;20093;-80
2023/12/22 03:17:43;;;;;;;10.73;1.90;;;4.50;99.90;;;2.69;70.17;97745.41;4935102;28;20102;-82
2023/12/22 03:20:09;;;;;;;11.90;1.80;;;4.50;99.90;;;2.73;69.50;97743.47;4941091;28;20110;-81
2023/12/22 03:22:40;;;;;;;11.55;1.90;;;4.50;99.90;;;2.70;69.16;97754.03;4936377;28;20027;-81
2023/12/22 03:25:06;;;;;;;14.10;1.90;;;4.50;99.90;;;2.77;69.30;97744.94;4951176;28;20027;-80
2023/12/22 03:27:32;;;;;;;19.38;1.73;;;4.50;99.90;;;2.74;68.70;97748.53;4949646;28;20051;-83
2023/12/22 03:29:58;;;;;;;18.15;3.17;;;4.60;99.90;;;2.83;68.99;97749.72;4950956;28;20502;-81
2023/12/22 03:32:24;;;;;;;13.95;1.52;;;4.60;99.90;;;2.78;68.69;97760.41;4952158;28;20114;-82
2023/12/22 03:34:49;;;;;;;13.95;1.65;;;4.60;99.90;;;2.84;68.58;97752.25;4934595;28;20092;-81
2023/12/22 03:37:24;;;;;;;21.33;2.15;;;4.60;99.90;;;2.90;68.47;97745.00;4935569;28;20030;-80
2023/12/22 03:39:50;;;;;;;18.90;2.58;;;4.60;99.90;;;2.87;68.57;97748.59;4954477;28;20038;-81
2023/12/22 03:42:16;;;;;;;11.73;1.40;;;4.60;99.90;;;2.79;68.76;97741.31;4932474;28;20464;-81
2023/12/22 03:44:49;;;;;;;14.60;1.95;;;4.60;99.90;;;2.80;68.98;97736.94;4930801;28;20039;-82
2023/12/22 03:47:15;;;;;;;26.10;2.42;;;4.60;99.90;;;2.81;69.20;97739.47;4947477;28;20027;-80
2023/12/22 03:49:41;;;;;;;9.77;2.42;;;4.60;99.90;;;2.80;69.19;97745.56;4931102;28;20090;-81
2023/12/22 03:52:07;;;;;;;20.42;3.10;;;4.60;99.90;;;2.94;68.82;97747.31;4974124;28;20374;-81
2023/12/22 03:54:32;;;;;;;11.85;2.30;;;4.70;99.90;;;2.99;68.76;97760.84;4952791;28;20030;-81
2023/12/22 03:57:07;;;;;;;19.48;2.55;;;4.70;99.90;;;3.03;68.94;97754.53;4954230;28;20118;-81
2023/12/22 03:59:33;;;;;;;20.55;1.70;;;4.70;99.90;;;3.03;68.09;97738.94;4953311;28;20031;-82
2023/12/22 04:02:01;;;;;;;9.55;1.83;;;4.80;99.90;;;3.13;67.77;97749.56;4955206;28;20518;-80
2023/12/22 04:04:31;;;;;;;17.02;1.95;;;4.80;99.90;;;3.13;68.18;97733.13;4931725;28;20042;-81
2023/12/22 04:06:57;;;;;;;8.30;1.38;;;4.90;99.90;;;3.19;67.74;97749.16;4954943;28;20027;-80
2023/12/22 04:09:23;;;;;;;9.88;1.65;;;4.90;99.90;;;3.16;68.61;97756.34;4932789;28;20388;-83
2023/12/22 04:11:49;;;;;;;8.23;2.08;;;4.90;99.90;;;3.29;67.54;97778.03;4948153;28;20111;-80
2023/12/22 04:14:15;;;;;;;8.15;1.40;;;5.00;99.90;;;3.31;68.09;97757.97;4953677;28;20126;-81
2023/12/22 04:16:40;;;;;;;10.35;1.95;;;5.00;99.90;;;3.31;68.80;97742.38;4947752;28;20110;-81
2023/12/22 04:19:11;;;;;;;12.02;3.42;;;5.00;99.90;;;3.16;68.09;97738.97;4954867;28;20081;-80
2023/12/22 04:21:37;;;;;;;11.88;1.65;;;4.90;99.90;;;3.08;67.17;97764.63;4947466;28;20122;-80
2023/12/22 04:24:04;;;;;;;7.43;1.30;;;4.80;99.90;;;3.00;66.37;97770.31;4951943;28;21391;-81
2023/12/22 04:26:30;;;;;;;14.70;1.55;;;4.70;99.90;;;2.88;65.00;97790.09;4935850;28;20034;-80
2023/12/22 04:28:55;;;;;;;4.65;1.08;;;4.60;99.90;;;2.79;64.26;97754.31;4951332;29;20078;-80
2023/12/22 04:31:21;;;;;;;2.85;0.60;;;4.60;99.90;;;2.77;64.64;97784.75;4968123;23;20693;-81
2023/12/22 04:33:55;;;;;;;10.75;1.33;;;4.50;99.90;;;2.61;65.26;97784.00;4975105;28;20110;-80
2023/12/22 04:36:21;;;;;;;10.20;1.42;;;4.40;99.90;;;2.60;64.94;97774.56;4984295;28;21428;-82
2023/12/22 04:38:47;;;;;;;2.97;0.57;;;4.50;99.90;;;2.72;63.93;97796.34;4982418;28;20026;-81
2023/12/22 04:41:12;;;;;;;13.00;1.20;;;4.50;99.90;;;2.79;63.36;97775.09;4956506;28;20019;-81
2023/12/22 04:43:46;;;;;;;8.10;0.75;;;4.50;99.90;;;2.74;63.61;97805.69;4967717;28;20022;-81
2023/12/22 04:46:12;;;;;;;5.35;1.15;;;4.50;99.90;;;2.71;64.29;97794.69;4965178;28;20026;-81
2023/12/22 04:48:37;;;;;;;11.07;1.52;;;4.50;99.90;;;2.64;64.76;97781.25;4963283;28;20030;-81
2023/12/22 04:51:04;;;;;;;9.70;1.60;;;4.40;99.90;;;2.60;65.17;97796.16;4962169;28;20113;-83
2023/12/22 04:53:29;;;;;;;9.85;2.10;;;4.40;99.90;;;2.58;65.96;97786.81;4949593;28;20150;-81
2023/12/22 04:55:55;;;;;;;10.65;1.23;;;4.40;99.90;;;2.61;66.29;97797.84;4949532;28;20030;-82
2023/12/22 04:58:24;;;;;;;12.93;1.98;;;4.40;99.90;;;2.65;66.95;97770.72;4948560;28;20030;-86
2023/12/22 05:00:49;;;;;;;13.23;2.13;;;4.40;99.90;;;2.59;67.09;97758.16;4959273;28;20034;-82
2023/12/22 05:03:15;;;;;;;14.27;1.70;;;4.40;99.90;;;2.60;67.65;97762.41;4952904;28;20034;-81
2023/12/22 05:05:44;;;;;;;15.55;2.22;;;4.40;99.90;;;2.59;68.06;97745.16;4964262;28;20111;-81
2023/12/22 05:08:09;;;;;;;21.27;1.85;;;4.40;99.90;;;2.66;67.77;97753.41;4965266;28;20026;-80
2023/12/22 05:10:42;;;;;;;14.27;2.17;;;4.40;99.90;;;2.64;68.06;97755.25;4948719;23;21141;-82
2023/12/22 05:13:08;;;;;;;14.77;2.33;;;4.40;99.90;;;2.63;68.47;97749.22;4960397;28;21069;-80
2023/12/22 05:15:34;;;;;;;7.72;0.80;;;4.50;99.90;;;2.69;68.34;97752.38;4960606;28;20485;-82
2023/12/22 05:18:00;;;;;;;14.93;1.90;;;4.50;99.90;;;2.74;69.01;97732.13;4975623;28;20094;-80
2023/12/22 05:20:28;;;;;;;15.02;2.67;;;4.50;99.90;;;2.78;68.68;97759.59;4952663;28;20115;-81
2023/12/22 05:22:56;;;;;;;10.23;1.77;;;4.50;99.90;;;2.85;69.21;97766.06;4963193;28;20030;-82
2023/12/22 05:25:22;;;;;;;14.85;2.30;;;4.60;99.90;;;2.84;69.54;97748.81;4941738;28;20035;-82
2023/12/22 05:27:48;;;;;;;14.93;1.95;;;4.60;99.90;;;2.87;70.04;97727.81;4960658;28;20528;-81
2023/12/22 05:30:14;;;;;;;16.00;1.92;;;4.60;99.90;;;2.81;70.92;97718.66;4965567;23;20118;-83
2023/12/22 05:32:40;;;;;;;7.90;1.13;;;4.50;99.90;;;2.69;71.01;97729.00;4971291;28;20051;-81
2023/12/22 05:35:10;;;;;;;15.45;2.15;;;4.50;99.90;;;2.72;71.72;97721.84;4955501;28;20444;-82
2023/12/22 05:37:36;;;;;;;20.75;3.13;;;4.50;99.90;;;2.67;72.32;97709.13;4956620;28;20023;-83
2023/12/22 05:40:02;;;;;;;32.10;2.78;;;4.50;99.90;;;2.76;72.22;97720.69;4955940;28;20062;-82
2023/12/22 05:42:28;;;;;;;14.48;1.83;;;4.50;99.90;;;2.74;71.86;97717.38;4941446;28;20030;-81
2023/12/22 05:44:54;;;;;;;20.40;3.50;;;4.60;99.90;;;2.79;71.69;97723.13;4934653;29;20038;-82
2023/12/22 05:47:19;;;;;;;15.50;2.30;;;4.50;99.90;;;2.80;71.62;97719.56;4919577;28;20023;-80
2023/12/22 05:49:46;;;;;;;20.75;2.63;;;4.60;99.90;;;2.86;71.50;97710.56;4939269;29;20155;-82
2023/12/22 05:52:15;;;;;;;9.50;1.67;;;4.60;99.90;;;2.85;72.03;97716.69;4961713;23;20567;-81
2023/12/22 05:54:41;;;;;;;28.42;3.00;;;4.60;99.90;;;2.90;72.36;97714.66;4949079;28;20031;-81
2023/12/22 05:57:07;;;;;;;16.75;2.30;;;4.60;99.90;;;2.78;73.29;97718.00;4947674;28;20090;-81
2023/12/22 05:59:34;;;;;;;15.35;2.50;;;4.60;99.90;;;2.76;73.46;97714.69;4964676;28;20027;-82
2023/12/22 06:02:00;;;;;;;12.80;1.73;;;4.50;99.90;;;2.63;73.95;97719.81;4921064;29;20679;-81
2023/12/22 06:04:32;;;;;;;11.90;2.13;;;4.50;99.90;;;2.65;74.15;97716.16;4941266;28;20028;-81
2023/12/22 06:06:59;;;;;;;11.52;2.28;;;4.50;99.90;;;2.63;74.33;97715.44;4926613;29;20046;-80
2023/12/22 06:09:25;;;;;;;20.17;2.83;;;4.40;99.90;;;2.64;75.08;97740.50;4909752;29;20644;-82
2023/12/22 06:11:51;;;;;;;14.40;1.98;;;4.40;99.90;;;2.61;74.81;97725.13;4907327;29;20112;-81
2023/12/22 06:14:17;;;;;;;7.55;1.35;;;4.40;99.90;;;2.63;74.72;97733.63;4929570;29;20111;-81
2023/12/22 06:16:50;;;;;;;15.65;2.15;;;4.50;99.90;;;2.75;75.01;97739.00;4927264;29;20123;-82
2023/12/22 06:19:16;;;;;;;18.90;3.10;;;4.50;99.90;;;2.74;74.81;97734.72;4910086;29;20032;-81
2023/12/22 06:21:42;;;;;;;18.83;2.38;;;4.50;99.90;;;2.74;75.32;97734.72;4924723;29;20059;-82
2023/12/22 06:24:09;;;;;;;28.65;3.50;;;4.50;99.90;;;2.80;75.82;97755.97;4920366;29;20038;-81
2023/12/22 06:26:42;;;;;;;9.48;1.23;;;4.50;99.90;;;2.50;77.20;97740.50;4929962;29;20038;-81
2023/12/22 06:29:09;;;;;;;17.20;2.67;;;4.30;99.90;;;2.39;78.69;97732.53;4923136;29;20104;-81
2023/12/22 06:31:35;;;;;;;6.50;1.42;;;4.30;99.90;;;2.42;79.26;97720.22;4961103;23;20084;-82
2023/12/22 06:34:02;;;;;;;18.00;2.53;;;4.30;99.90;;;2.49;78.57;97731.06;4950029;28;20401;-81
2023/12/22 06:36:35;;;;;;;18.42;1.98;;;4.30;99.90;;;2.50;78.17;97727.53;4939211;28;20043;-81
2023/12/22 06:39:01;;;;;;;26.42;3.53;;;4.30;99.90;;;2.53;78.08;97721.28;4936676;29;20027;-81
2023/12/22 06:41:29;;;;;;;21.98;3.30;;;4.30;99.90;;;2.57;78.15;97733.16;4935010;29;20023;-81
2023/12/22 06:44:01;;;;;;;12.85;1.88;;;4.30;99.90;;;2.52;78.07;97728.25;4927176;29;20026;-84
2023/12/22 06:46:31;;;;;;;14.30;2.20;;;4.30;99.90;;;2.56;77.75;97740.13;4933581;29;20027;-81
2023/12/22 06:48:58;;;;;;;31.02;3.28;;;4.30;99.90;;;2.65;77.70;97749.94;4922786;29;20031;-82
2023/12/22 06:51:30;;;;;;;12.93;1.80;;;4.40;99.90;;;2.68;77.83;97743.75;4957624;23;20043;-82
2023/12/22 06:53:57;;;;;;;15.68;2.22;;;4.40;99.90;;;2.73;76.71;97751.25;4965454;28;20066;-81
2023/12/22 06:56:25;;;;;;;7.18;1.35;;;4.50;99.90;;;2.80;76.28;97749.94;4958345;28;20034;-82
2023/12/22 06:58:56;;;;;;;10.75;1.38;;;4.60;99.90;;;2.88;75.68;97763.28;4950630;28;20023;-82
2023/12/22 07:01:37;;;;;;;9.98;2.08;;;4.60;99.90;;;2.85;76.21;97764.31;4971790;28;20032;-81
2023/12/22 07:04:04;;;;;;;9.05;1.85;;;4.60;99.90;;;2.90;75.47;97760.59;4925284;29;20024;-82
2023/12/22 07:06:33;;;;;;;9.32;1.60;;;4.60;99.90;;;2.89;75.35;97780.53;4930265;29;20032;-80
2023/12/22 07:09:14;;;;;;;19.63;2.17;;;4.60;99.90;;;2.86;75.43;97752.16;4917624;29;20032;-80
2023/12/22 07:11:52;;;;;;;11.73;2.05;;;4.70;99.90;;;2.91;74.42;97778.69;4934820;29;20035;-81
2023/12/22 07:14:23;;;;;;;8.55;1.20;;;4.70;99.90;;;2.88;74.54;97790.09;4938863;29;20031;-81
2023/12/22 07:16:49;;;;;;;10.35;1.90;;;4.70;99.90;;;2.92;74.38;97795.97;4921375;28;20123;-80
2023/12/22 07:19:14;;;;;;;14.02;1.83;;;4.70;99.90;;;2.93;74.09;97789.00;4920911;29;20405;-81
2023/12/22 07:21:41;;;;;;;13.45;3.15;;;4.70;99.90;;;2.95;75.01;97798.34;4958333;28;20122;-80
2023/12/22 07:24:07;;;;;;;13.65;2.35;;;4.70;99.90;;;2.96;74.93;97804.38;4935731;29;20520;-81
2023/12/22 07:26:33;;;;;;;4.82;2.03;;;4.70;99.90;;;2.93;75.07;97776.81;4928803;29;20043;-82
2023/12/22 07:28:59;;;;;;;13.25;1.83;;;4.70;99.90;;;2.95;74.67;97803.56;4930388;29;20053;-80
2023/12/22 07:31:28;;;;;;;7.57;2.17;;;4.70;99.90;;;2.95;73.84;97792.31;4935260;29;20502;-81
2023/12/22 07:33:53;;;;;;;13.02;2.53;;;4.70;99.90;;;3.00;73.50;97764.28;4938397;29;20396;-81
2023/12/22 07:36:21;;;;;;;6.97;2.20;;;4.80;99.90;;;3.00;73.54;97817.13;4934732;29;20027;-80
2023/12/22 07:38:47;;;;;;;11.10;2.97;;;4.80;99.90;;;3.01;72.96;97820.53;4921304;29;20085;-81
2023/12/22 07:41:13;;;;;;;13.60;2.30;;;4.70;99.90;;;2.99;73.15;97754.81;4919939;29;20039;-82
2023/12/22 07:43:43;;;;;;;17.75;1.67;;;4.70;99.90;;;3.00;73.35;97824.06;4916513;29;20041;-81
2023/12/22 07:46:16;;;;;;;10.88;2.28;;;4.80;99.90;;;2.99;74.02;97807.63;4948328;28;20062;-82
2023/12/22 07:48:45;;;;;;;13.00;1.88;;;4.80;99.90;;;3.00;74.23;97809.31;4954344;28;20035;-81
2023/12/22 07:51:11;;;;;;;17.90;1.83;;;4.80;99.90;;;2.97;75.15;97812.09;4927070;29;20027;-81
2023/12/22 07:53:37;;;;;;;8.95;2.10;;;4.70;99.90;;;2.93;75.34;97805.41;4914500;29;20090;-80
2023/12/22 07:56:05;;;;;;;14.02;2.53;;;4.70;99.90;;;2.93;75.82;97809.78;4937709;29;20110;-81
2023/12/22 07:58:31;;;;;;;21.05;2.20;;;4.70;99.90;;;2.94;76.27;97799.31;4938994;29;20026;-81
2023/12/22 08:01:07;;;;;;;10.00;1.15;;;4.70;99.90;;;2.96;76.17;97812.19;4950217;29;20039;-80
2023/12/22 08:03:33;;;;;;;11.45;1.60;;;4.70;99.90;;;2.97;76.26;97838.09;4914872;29;20118;-82
2023/12/22 08:05:59;;;;;;;15.48;2.17;;;4.70;99.90;;;2.97;75.98;97803.47;4933099;29;20213;-81
2023/12/22 08:08:25;;;;;;;9.88;1.83;;;4.70;99.90;;;3.02;75.33;97731.22;4915606;29;20083;-81
2023/12/22 08:11:00;;;;;;;20.17;2.05;;;4.80;99.90;;;3.06;74.97;97814.09;4934540;29;20118;-80
2023/12/22 08:13:26;;;;;;;14.70;1.75;;;4.70;99.90;;;3.03;74.59;97821.28;4933767;29;20038;-81
2023/12/22 08:15:53;;;;;;;13.05;2.25;;;4.80;99.90;;;3.01;74.32;97797.16;4963951;28;20027;-80
2023/12/22 08:18:26;;;;;;;18.63;1.75;;;4.80;99.90;;;3.04;74.14;97830.75;4937158;29;20119;-80
2023/12/22 08:20:52;;;;;;;6.00;1.52;;;4.80;99.90;;;3.00;74.35;97804.13;4930452;29;20035;-80
2023/12/22 08:23:18;;;;;;;14.10;2.38;;;4.70;99.90;;;2.92;74.89;97858.34;4933175;29;20106;-80
2023/12/22 08:25:43;;;;;;;6.15;1.42;;;4.70;99.90;;;2.87;75.47;97821.38;4928853;29;20035;-81
2023/12/22 08:28:09;;;;;;;9.90;1.67;;;4.70;99.90;;;2.88;75.91;97843.84;4944927;29;20118;-81
2023/12/22 08:30:39;;;;;;;15.00;2.25;;;4.60;99.90;;;2.94;75.44;97853.03;4917974;29;20062;-81
2023/12/22 08:33:05;;;;;;;15.55;2.85;;;4.70;99.90;;;2.94;75.01;97869.47;4919102;28;20028;-80
2023/12/22 08:35:31;;;;;;;8.05;2.25;;;4.70;99.90;;;2.99;75.02;97846.63;4935915;29;20553;-83
2023/12/22 08:37:57;;;;;;;8.80;1.85;;;4.70;99.90;;;2.99;75.18;97882.19;4921281;29;20086;-81
2023/12/22 08:40:25;;;;;;;20.42;2.60;;;4.80;99.90;;;3.00;75.39;97876.03;4941462;29;20039;-81
2023/12/22 08:42:59;;;;;;;20.88;3.17;;;4.80;99.90;;;3.08;75.62;97879.84;4931632;29;20027;-82
2023/12/22 08:45:28;;;;;;;9.45;2.15;;;4.80;99.90;;;3.09;75.80;97888.50;4946413;29;20049;-81
2023/12/22 08:48:00;;;;;;;18.17;2.20;;;4.90;99.90;;;3.15;74.68;97890.69;4938358;28;20106;-81
2023/12/22 08:50:26;;;;;;;19.60;2.72;;;4.90;99.90;;;3.10;75.57;97891.94;4932854;29;20050;-81
2023/12/22 08:52:52;;;;;;;12.90;1.67;;;4.80;99.90;;;3.06;75.99;97891.28;4955011;28;20114;-81
2023/12/22 08:55:18;;;;;;;13.10;2.40;;;4.80;99.90;;;3.06;75.65;97891.28;4940071;29;20117;-82
2023/12/22 08:57:44;;;;;;;14.05;2.60;;;4.90;99.90;;;3.08;75.66;97895.44;4937350;29;20031;-82
2023/12/22 09:00:16;;;;;;;16.77;2.28;;;4.90;99.90;;;3.20;74.95;97906.03;4957402;28;20602;-80
2023/12/22 09:02:42;;;;;;;14.93;2.55;;;4.90;99.90;;;3.18;75.56;97881.91;4925726;28;20040;-83
2023/12/22 09:05:08;;;;;;;11.88;3.35;;;4.90;99.90;;;3.18;75.33;97907.91;4950157;29;20570;-80
2023/12/22 09:07:34;;;;;;;21.38;2.63;;;4.90;99.90;;;3.22;75.00;97923.22;4929939;29;20067;-84
2023/12/22 09:10:00;;;;;;;9.90;2.45;;;4.90;99.90;;;3.19;74.42;97925.16;4934488;29;20098;-81
2023/12/22 09:12:33;;;;;;;25.00;2.90;;;4.90;99.90;;;3.24;74.56;97941.31;4917700;29;20698;-80
2023/12/22 09:14:59;;;;;;;5.72;2.38;;;5.00;99.90;;;3.31;74.24;97921.81;4918412;29;20411;-83
2023/12/22 09:17:28;;;;;;;9.90;1.98;;;5.10;99.90;;;3.33;74.43;97951.16;4935971;29;20042;-81
2023/12/22 09:19:59;;;;;;;24.58;3.17;;;5.00;99.90;;;3.27;73.97;97946.34;4933022;29;20054;-82
2023/12/22 09:22:25;;;;;;;11.18;2.33;;;5.00;99.90;;;3.23;74.03;97963.88;4953908;28;20043;-80
2023/12/22 09:24:51;;;;;;;13.95;1.85;;;5.00;99.90;;;3.26;73.28;97966.31;4919883;29;20099;-81
2023/12/22 09:27:17;;;;;;;16.10;2.97;;;5.00;99.90;;;3.26;73.60;97988.84;4918127;29;20047;-80
2023/12/22 09:29:43;;;;;;;10.30;2.58;;;5.00;99.90;;;3.22;73.00;97954.44;4916566;29;20078;-82
2023/12/22 09:32:15;;;;;;;12.10;3.42;;;5.00;99.90;;;3.20;73.57;97990.09;4924193;29;20106;-81
2023/12/22 09:34:44;;;;;;;9.18;2.58;;;5.00;99.90;;;3.18;73.74;97998.91;4924256;29;20561;-81
2023/12/22 09:37:12;;;;;;;12.73;1.90;;;5.00;99.90;;;3.18;73.54;97999.75;4923118;29;20638;-80
2023/12/22 09:39:43;;;;;;;11.75;2.15;;;5.00;99.90;;;3.18;73.57;98001.50;4936602;29;20058;-81
2023/12/22 09:42:12;;;;;;;10.23;2.63;;;4.90;99.90;;;3.14;73.88;97998.25;4930384;29;20509;-80
2023/12/22 09:44:51;;;;;;;19.30;3.78;;;4.90;99.90;;;3.14;73.01;98005.22;4933023;29;20031;-81
2023/12/22 09:47:18;;;;;;;15.98;3.85;;;4.90;99.90;;;3.11;72.98;97969.84;4940274;29;20478;-80
2023/12/22 09:49:46;;;;;;;11.95;1.92;;;4.90;99.90;;;3.08;73.68;98025.44;4923612;29;20035;-81
2023/12/22 09:52:16;;;;;;;15.80;2.38;;;4.90;99.90;;;3.08;73.90;98012.44;4933981;29;20059;-81
2023/12/22 09:54:42;;;;;;;12.73;2.55;;;4.90;99.90;;;3.10;73.47;98042.72;4939000;29;20023;-82
2023/12/22 09:57:09;;;;;;;14.00;2.17;;;4.90;99.90;;;3.06;73.44;98040.28;4919253;29;20087;-80
2023/12/22 09:59:37;;;;;;;14.52;2.90;;;4.80;99.90;;;3.05;73.52;98059.44;4935120;29;20073;-82
2023/12/22 10:02:07;;;;;;;14.32;2.63;;;4.80;99.90;;;3.04;73.86;98064.72;4925222;29;20047;-81
2023/12/22 10:04:36;;;;;;;33.17;3.75;;;4.80;99.90;;;3.03;73.77;98044.84;4918253;29;20556;-81
2023/12/22 10:07:08;;;;;;;10.35;2.20;;;4.80;99.90;;;3.05;73.80;98056.84;4938898;29;20035;-81
2023/12/22 10:09:39;;;;;;;17.48;4.07;;;4.80;99.90;;;3.07;72.57;98077.53;4932348;28;20047;-80
2023/12/22 10:12:06;;;;;;;12.10;2.75;;;4.80;99.90;;;3.09;72.25;98096.50;4923460;29;20036;-81
2023/12/22 10:14:35;;;;;;;6.97;1.75;;;4.80;99.90;;;3.06;71.78;98087.09;4926122;29;20043;-81
2023/12/22 10:17:05;;;;;;;15.02;2.80;;;4.90;99.90;;;3.08;72.68;98089.59;4920305;29;21247;-80
2023/12/22 10:19:36;;;;;;;10.60;2.40;;;4.80;99.90;;;3.10;72.37;98105.13;4936816;29;20066;-80
2023/12/22 10:22:05;;;;;;;11.20;1.92;;;4.80;99.90;;;3.10;72.36;98105.97;4920659;29;20116;-82
2023/12/22 10:24:55;;;;;;;15.65;2.78;;;4.90;99.90;;;3.11;71.61;98071.25;4935268;29;20438;-82
2023/12/22 10:30:17;;;;;;;12.68;2.53;;;4.80;99.90;;;3.10;72.07;98110.31;4935307;29;20572;-80
2023/12/22 10:32:49;;;;;;;13.10;2.47;;;4.90;99.90;;;3.14;71.90;98114.44;4938142;28;20158;-82
2023/12/22 10:35:18;;;;;;;22.63;3.65;;;4.90;99.90;;;3.13;71.75;98112.72;4936026;29;20560;-81
2023/12/22 10:37:52;;;;;;;10.93;1.98;;;4.90;99.90;;;3.16;71.63;98138.59;4934351;29;20043;-80
2023/12/22 10:40:22;;;;;;;14.00;2.70;;;4.90;99.90;;;3.13;71.18;98149.13;4930808;29;20039;-81